createdAt,value
2018-06-15T00:00:38.257Z,1006.07
2018-06-15T00:01:38.281Z,1006.07
2018-06-15T00:02:38.261Z,1006.05
2018-06-15T00:03:38.267Z,1006.03
2018-06-15T00:04:38.267Z,1006.08
2018-06-15T00:05:38.267Z,1006.05
2018-06-15T00:06:38.270Z,1006.12
2018-06-15T00:07:38.272Z,1006.11
2018-06-15T00:08:38.280Z,1006.08
2018-06-15T00:09:38.276Z,1006.08
2018-06-15T00:10:38.279Z,1006.08
2018-06-15T00:11:38.282Z,1006.11
2018-06-15T00:12:38.285Z,1006.11
2018-06-15T00:13:38.286Z,1006.08
2018-06-15T00:14:38.288Z,1006.09
2018-06-15T00:15:38.292Z,1006.09
2018-06-15T00:16:38.294Z,1006.07
2018-06-15T00:17:38.297Z,1006.11
2018-06-15T00:18:38.298Z,1006.08
2018-06-15T00:19:38.301Z,1006.05
2018-06-15T00:20:38.304Z,1006.07
2018-06-15T00:21:38.307Z,1006.09
2018-06-15T00:22:38.308Z,1006.04
2018-06-15T00:23:38.311Z,1006.08
2018-06-15T00:24:38.313Z,1006.05
2018-06-15T00:25:38.315Z,1006.04
2018-06-15T00:26:38.319Z,1006.06
2018-06-15T00:27:38.355Z,1006.05
2018-06-15T00:28:38.323Z,1006.06
2018-06-15T00:29:38.325Z,1006.05
2018-06-15T00:30:38.329Z,1006.04
2018-06-15T00:31:38.330Z,1006.02
2018-06-15T00:32:38.333Z,1006.04
2018-06-15T00:33:38.334Z,1006.05
2018-06-15T00:34:38.338Z,1006.06
2018-06-15T00:35:38.340Z,1006.07
2018-06-15T00:36:38.343Z,1006.06
2018-06-15T00:37:38.344Z,1006.03
2018-06-15T00:38:38.347Z,1005.98
2018-06-15T00:39:38.350Z,1006.03
2018-06-15T00:40:38.352Z,1006.02
2018-06-15T00:41:38.355Z,1006.02
2018-06-15T00:42:38.356Z,1006.02
2018-06-15T00:43:38.360Z,1006.03
2018-06-15T00:44:38.361Z,1006.01
2018-06-15T00:45:38.370Z,1006.00
2018-06-15T00:46:38.366Z,1006.03
2018-06-15T00:47:38.371Z,1005.98
2018-06-15T00:48:38.371Z,1005.99
2018-06-15T00:49:38.373Z,1006.03
2018-06-15T00:50:38.375Z,1006.00
2018-06-15T00:51:38.378Z,1006.00
2018-06-15T00:52:38.381Z,1006.00
2018-06-15T00:53:38.383Z,1005.96
2018-06-15T00:54:38.385Z,1005.99
2018-06-15T00:55:38.389Z,1005.95
2018-06-15T00:56:38.391Z,1005.94
2018-06-15T00:57:38.395Z,1005.94
2018-06-15T00:58:38.400Z,1005.91
2018-06-15T00:59:38.398Z,1005.91
2018-06-15T01:00:38.401Z,1005.91
2018-06-15T01:01:38.401Z,1005.92
2018-06-15T01:02:38.406Z,1005.94
2018-06-15T01:03:38.412Z,1005.94
2018-06-15T01:04:38.412Z,1005.98
2018-06-15T01:05:38.411Z,1005.96
2018-06-15T01:06:38.415Z,1006.00
2018-06-15T01:07:38.417Z,1006.00
2018-06-15T01:08:38.420Z,1006.00
2018-06-15T01:09:38.421Z,1005.97
2018-06-15T01:10:38.425Z,1005.97
2018-06-15T01:11:38.426Z,1005.96
2018-06-15T01:12:38.429Z,1005.94
2018-06-15T01:13:38.431Z,1005.92
2018-06-15T01:14:38.432Z,1005.96
2018-06-15T01:15:38.436Z,1005.94
2018-06-15T01:16:38.438Z,1005.94
2018-06-15T01:17:38.441Z,1005.93
2018-06-15T01:18:38.442Z,1005.92
2018-06-15T01:19:38.447Z,1005.90
2018-06-15T01:20:38.453Z,1005.93
2018-06-15T01:21:38.449Z,1005.91
2018-06-15T01:22:38.450Z,1005.88
2018-06-15T01:23:38.453Z,1005.88
2018-06-15T01:24:38.458Z,1005.88
2018-06-15T01:25:38.458Z,1005.86
2018-06-15T01:26:38.459Z,1005.87
2018-06-15T01:27:38.462Z,1005.85
2018-06-15T01:28:38.464Z,1005.86
2018-06-15T01:29:38.466Z,1005.87
2018-06-15T01:30:38.467Z,1005.89
2018-06-15T01:31:38.470Z,1005.86
2018-06-15T01:32:38.472Z,1005.87
2018-06-15T01:33:38.473Z,1005.81
2018-06-15T01:34:38.476Z,1005.77
2018-06-15T01:35:38.480Z,1005.78
2018-06-15T01:36:38.480Z,1005.81
2018-06-15T01:37:38.480Z,1005.80
2018-06-15T01:38:38.489Z,1005.76
2018-06-15T01:39:38.485Z,1005.78
2018-06-15T01:40:38.490Z,1005.77
2018-06-15T01:41:38.488Z,1005.80
2018-06-15T01:42:38.490Z,1005.78
2018-06-15T01:43:38.492Z,1005.78
2018-06-15T01:44:38.494Z,1005.77
2018-06-15T01:45:38.495Z,1005.72
2018-06-15T01:46:38.498Z,1005.79
2018-06-15T01:47:38.500Z,1005.80
2018-06-15T01:48:38.509Z,1005.75
2018-06-15T01:49:38.503Z,1005.78
2018-06-15T01:50:38.505Z,1005.74
2018-06-15T01:51:38.506Z,1005.70
2018-06-15T01:52:38.508Z,1005.72
2018-06-15T01:53:38.509Z,1005.73
2018-06-15T01:54:38.512Z,1005.69
2018-06-15T01:55:38.517Z,1005.69
2018-06-15T01:56:38.516Z,1005.69
2018-06-15T01:57:38.517Z,1005.65
2018-06-15T01:58:38.520Z,1005.65
2018-06-15T01:59:38.521Z,1005.65
2018-06-15T02:00:38.522Z,1005.63
2018-06-15T02:01:38.524Z,1005.63
2018-06-15T02:02:38.525Z,1005.66
2018-06-15T02:03:38.528Z,1005.66
2018-06-15T02:04:38.529Z,1005.63
2018-06-15T02:05:38.534Z,1005.64
2018-06-15T02:06:38.533Z,1005.63
2018-06-15T02:07:38.535Z,1005.65
2018-06-15T02:08:38.537Z,1005.64
2018-06-15T02:09:38.539Z,1005.64
2018-06-15T02:10:38.539Z,1005.62
2018-06-15T02:11:38.544Z,1005.62
2018-06-15T02:12:38.544Z,1005.66
2018-06-15T02:13:38.546Z,1005.64
2018-06-15T02:14:38.547Z,1005.65
2018-06-15T02:15:38.549Z,1005.65
2018-06-15T02:16:38.552Z,1005.64
2018-06-15T02:17:38.552Z,1005.67
2018-06-15T02:18:38.554Z,1005.60
2018-06-15T02:19:38.556Z,1005.59
2018-06-15T02:20:38.558Z,1005.60
2018-06-15T02:21:38.559Z,1005.58
2018-06-15T02:22:38.561Z,1005.59
2018-06-15T02:23:38.563Z,1005.61
2018-06-15T02:24:38.565Z,1005.60
2018-06-15T02:25:38.566Z,1005.61
2018-06-15T02:26:38.568Z,1005.61
2018-06-15T02:27:38.570Z,1005.63
2018-06-15T02:28:38.572Z,1005.63
2018-06-15T02:29:38.573Z,1005.58
2018-06-15T02:30:38.575Z,1005.62
2018-06-15T02:31:38.577Z,1005.60
2018-06-15T02:32:38.579Z,1005.60
2018-06-15T02:33:38.581Z,1005.61
2018-06-15T02:34:38.582Z,1005.62
2018-06-15T02:35:38.584Z,1005.63
2018-06-15T02:36:38.587Z,1005.68
2018-06-15T02:37:38.587Z,1005.69
2018-06-15T02:38:38.589Z,1005.70
2018-06-15T02:39:38.591Z,1005.65
2018-06-15T02:40:38.593Z,1005.69
2018-06-15T02:41:38.594Z,1005.68
2018-06-15T02:42:38.596Z,1005.65
2018-06-15T02:43:38.598Z,1005.66
2018-06-15T02:44:38.599Z,1005.69
2018-06-15T02:45:38.602Z,1005.68
2018-06-15T02:46:38.601Z,1005.74
2018-06-15T02:47:38.605Z,1005.72
2018-06-15T02:48:38.606Z,1005.69
2018-06-15T02:49:38.607Z,1005.71
2018-06-15T02:50:38.609Z,1005.68
2018-06-15T02:51:38.609Z,1005.70
2018-06-15T02:52:38.611Z,1005.70
2018-06-15T02:53:38.613Z,1005.74
2018-06-15T02:54:38.614Z,1005.75
2018-06-15T02:55:38.616Z,1005.73
2018-06-15T02:56:38.617Z,1005.76
2018-06-15T02:57:38.622Z,1005.77
2018-06-15T02:58:38.622Z,1005.76
2018-06-15T02:59:38.622Z,1005.78
2018-06-15T03:00:38.623Z,1005.79
2018-06-15T03:01:38.625Z,1005.80
2018-06-15T03:02:38.625Z,1005.82
2018-06-15T03:03:38.627Z,1005.82
2018-06-15T03:04:38.629Z,1005.82
2018-06-15T03:05:38.629Z,1005.83
2018-06-15T03:06:38.630Z,1005.85
2018-06-15T03:07:38.633Z,1005.85
2018-06-15T03:08:38.635Z,1005.91
2018-06-15T03:09:38.634Z,1005.90
2018-06-15T03:10:38.637Z,1005.89
2018-06-15T03:11:38.638Z,1005.87
2018-06-15T03:12:38.640Z,1005.88
2018-06-15T03:13:38.641Z,1005.87
2018-06-15T03:14:38.642Z,1005.88
2018-06-15T03:15:38.643Z,1005.89
2018-06-15T03:16:38.646Z,1005.90
2018-06-15T03:17:38.645Z,1005.91
2018-06-15T03:18:38.649Z,1005.93
2018-06-15T03:19:38.650Z,1005.92
2018-06-15T03:20:38.651Z,1005.92
2018-06-15T03:21:38.652Z,1005.89
2018-06-15T03:22:38.654Z,1005.92
2018-06-15T03:23:38.656Z,1005.90
2018-06-15T03:24:38.658Z,1005.96
2018-06-15T03:25:38.658Z,1005.92
2018-06-15T03:26:38.660Z,1005.92
2018-06-15T03:27:38.662Z,1005.96
2018-06-15T03:28:38.664Z,1005.95
2018-06-15T03:29:38.665Z,1006.03
2018-06-15T03:30:38.669Z,1006.04
2018-06-15T03:31:38.673Z,1006.04
2018-06-15T03:32:38.671Z,1006.03
2018-06-15T03:33:38.671Z,1006.08
2018-06-15T03:34:38.672Z,1006.12
2018-06-15T03:35:38.675Z,1006.06
2018-06-15T03:36:38.677Z,1006.09
2018-06-15T03:37:38.701Z,1006.12
2018-06-15T03:38:38.679Z,1006.14
2018-06-15T03:39:38.682Z,1006.12
2018-06-15T03:40:38.683Z,1006.10
2018-06-15T03:41:38.684Z,1006.12
2018-06-15T03:42:38.685Z,1006.13
2018-06-15T03:43:38.688Z,1006.17
2018-06-15T03:44:38.689Z,1006.11
2018-06-15T03:45:38.691Z,1006.14
2018-06-15T03:46:38.692Z,1006.15
2018-06-15T03:47:38.695Z,1006.16
2018-06-15T03:48:38.696Z,1006.15
2018-06-15T03:49:38.698Z,1006.23
2018-06-15T03:50:38.699Z,1006.20
2018-06-15T03:51:38.704Z,1006.22
2018-06-15T03:52:38.703Z,1006.23
2018-06-15T03:53:38.708Z,1006.22
2018-06-15T03:54:38.706Z,1006.23
2018-06-15T03:55:38.708Z,1006.20
2018-06-15T03:56:38.714Z,1006.23
2018-06-15T03:57:38.711Z,1006.23
2018-06-15T03:58:38.713Z,1006.25
2018-06-15T03:59:38.716Z,1006.22
2018-06-15T04:00:38.717Z,1006.26
2018-06-15T04:01:38.720Z,1006.28
2018-06-15T04:02:38.721Z,1006.25
2018-06-15T04:03:38.722Z,1006.27
2018-06-15T04:04:38.724Z,1006.28
2018-06-15T04:05:38.727Z,1006.32
2018-06-15T04:06:38.727Z,1006.28
2018-06-15T04:07:38.785Z,1006.29
2018-06-15T04:08:38.732Z,1006.32
2018-06-15T04:09:38.734Z,1006.34
2018-06-15T04:10:38.734Z,1006.32
2018-06-15T04:11:38.737Z,1006.35
2018-06-15T04:12:38.739Z,1006.34
2018-06-15T04:13:38.741Z,1006.38
2018-06-15T04:14:38.740Z,1006.35
2018-06-15T04:15:38.750Z,1006.39
2018-06-15T04:16:38.745Z,1006.36
2018-06-15T04:17:38.749Z,1006.34
2018-06-15T04:18:38.749Z,1006.38
2018-06-15T04:19:38.752Z,1006.35
2018-06-15T04:20:38.753Z,1006.33
2018-06-15T04:21:38.757Z,1006.34
2018-06-15T04:22:38.757Z,1006.34
2018-06-15T04:23:38.758Z,1006.38
2018-06-15T04:24:38.761Z,1006.40
2018-06-15T04:25:38.762Z,1006.37
2018-06-15T04:26:38.762Z,1006.40
2018-06-15T04:27:38.766Z,1006.40
2018-06-15T04:28:38.768Z,1006.39
2018-06-15T04:29:38.771Z,1006.38
2018-06-15T04:30:38.771Z,1006.39
2018-06-15T04:31:38.773Z,1006.39
2018-06-15T04:32:38.776Z,1006.40
2018-06-15T04:33:38.777Z,1006.37
2018-06-15T04:34:38.778Z,1006.36
2018-06-15T04:35:38.781Z,1006.40
2018-06-15T04:36:38.782Z,1006.38
2018-06-15T04:37:38.785Z,1006.37
2018-06-15T04:38:38.787Z,1006.40
2018-06-15T04:39:38.789Z,1006.41
2018-06-15T04:40:38.792Z,1006.42
2018-06-15T04:41:38.797Z,1006.40
2018-06-15T04:42:38.796Z,1006.38
2018-06-15T04:43:38.798Z,1006.39
2018-06-15T04:44:38.800Z,1006.40
2018-06-15T04:45:38.802Z,1006.43
2018-06-15T04:46:38.805Z,1006.46
2018-06-15T04:47:38.806Z,1006.48
2018-06-15T04:48:38.809Z,1006.49
2018-06-15T04:49:38.811Z,1006.49
2018-06-15T04:50:38.815Z,1006.51
2018-06-15T04:51:38.816Z,1006.46
2018-06-15T04:52:38.818Z,1006.47
2018-06-15T04:53:38.820Z,1006.48
2018-06-15T04:54:38.824Z,1006.48
2018-06-15T04:55:38.825Z,1006.52
2018-06-15T04:56:38.828Z,1006.53
2018-06-15T04:57:38.831Z,1006.56
2018-06-15T04:58:38.833Z,1006.54
2018-06-15T04:59:38.836Z,1006.54
2018-06-15T05:00:38.838Z,1006.57
2018-06-15T05:01:38.841Z,1006.58
2018-06-15T05:02:38.845Z,1006.61
2018-06-15T05:03:38.846Z,1006.60
2018-06-15T05:04:38.849Z,1006.61
2018-06-15T05:05:38.851Z,1006.59
2018-06-15T05:06:38.854Z,1006.59
2018-06-15T05:07:38.862Z,1006.58
2018-06-15T05:08:38.860Z,1006.56
2018-06-15T05:09:38.862Z,1006.61
2018-06-15T05:10:38.866Z,1006.59
2018-06-15T05:11:38.869Z,1006.62
2018-06-15T05:12:38.872Z,1006.56
2018-06-15T05:13:38.873Z,1006.61
2018-06-15T05:14:38.880Z,1006.56
2018-06-15T05:15:38.883Z,1006.60
2018-06-15T05:16:38.884Z,1006.57
2018-06-15T05:17:38.887Z,1006.57
2018-06-15T05:18:38.891Z,1006.57
2018-06-15T05:19:38.893Z,1006.60
2018-06-15T05:20:38.897Z,1006.62
2018-06-15T05:21:38.902Z,1006.62
2018-06-15T05:22:38.903Z,1006.63
2018-06-15T05:23:38.906Z,1006.65
2018-06-15T05:24:38.910Z,1006.60
2018-06-15T05:25:38.914Z,1006.55
2018-06-15T05:26:38.918Z,1006.57
2018-06-15T05:27:38.920Z,1006.56
2018-06-15T05:28:38.924Z,1006.58
2018-06-15T05:29:38.927Z,1006.58
2018-06-15T05:30:38.930Z,1006.58
2018-06-15T05:31:38.935Z,1006.60
2018-06-15T05:32:38.937Z,1006.60
2018-06-15T05:33:38.940Z,1006.60
2018-06-15T05:34:38.944Z,1006.59
2018-06-15T05:35:38.948Z,1006.65
2018-06-15T05:36:38.951Z,1006.67
2018-06-15T05:37:38.958Z,1006.68
2018-06-15T05:38:38.957Z,1006.67
2018-06-15T05:39:38.962Z,1006.67
2018-06-15T05:40:38.965Z,1006.66
2018-06-15T05:41:38.969Z,1006.70
2018-06-15T05:42:38.989Z,1006.69
2018-06-15T05:43:38.974Z,1006.72
2018-06-15T05:44:38.978Z,1006.68
2018-06-15T05:45:38.981Z,1006.69
2018-06-15T05:46:38.983Z,1006.71
2018-06-15T05:47:38.987Z,1006.72
2018-06-15T05:48:38.991Z,1006.75
2018-06-15T05:49:38.993Z,1006.73
2018-06-15T05:50:38.999Z,1006.77
2018-06-15T05:51:38.999Z,1006.76
2018-06-15T05:52:39.002Z,1006.82
2018-06-15T05:53:39.007Z,1006.79
2018-06-15T05:54:39.012Z,1006.79
2018-06-15T05:55:39.043Z,1006.81
2018-06-15T05:56:39.015Z,1006.83
2018-06-15T05:57:39.017Z,1006.84
2018-06-15T05:58:39.023Z,1006.87
2018-06-15T05:59:39.024Z,1006.86
2018-06-15T06:00:39.027Z,1006.88
2018-06-15T06:01:39.029Z,1006.87
2018-06-15T06:02:39.034Z,1006.88
2018-06-15T06:03:39.036Z,1006.94
2018-06-15T06:04:39.039Z,1006.98
2018-06-15T06:05:39.042Z,1006.92
2018-06-15T06:06:39.045Z,1006.97
2018-06-15T06:07:39.048Z,1006.96
2018-06-15T06:08:39.052Z,1006.93
2018-06-15T06:09:39.054Z,1006.90
2018-06-15T06:10:39.058Z,1006.91
2018-06-15T06:11:39.062Z,1006.90
2018-06-15T06:12:39.066Z,1006.92
2018-06-15T06:13:39.067Z,1006.95
2018-06-15T06:14:39.074Z,1006.93
2018-06-15T06:15:39.075Z,1006.92
2018-06-15T06:16:39.078Z,1006.94
2018-06-15T06:17:39.080Z,1006.93
2018-06-15T06:18:39.084Z,1006.99
2018-06-15T06:19:39.088Z,1006.95
2018-06-15T06:20:39.091Z,1006.99
2018-06-15T06:21:39.094Z,1007.06
2018-06-15T06:22:39.098Z,1007.08
2018-06-15T06:23:39.101Z,1007.10
2018-06-15T06:24:39.108Z,1007.15
2018-06-15T06:25:39.107Z,1007.14
2018-06-15T06:26:39.111Z,1007.06
2018-06-15T06:27:39.117Z,1007.11
2018-06-15T06:28:39.119Z,1007.12
2018-06-15T06:29:39.122Z,1007.14
2018-06-15T06:30:39.126Z,1007.16
2018-06-15T06:31:39.130Z,1007.19
2018-06-15T06:32:39.204Z,1007.27
2018-06-15T06:33:39.136Z,1007.19
2018-06-15T06:34:39.141Z,1007.21
2018-06-15T06:35:39.146Z,1007.26
2018-06-15T06:36:39.152Z,1007.32
2018-06-15T06:37:39.152Z,1007.33
2018-06-15T06:38:39.155Z,1007.33
2018-06-15T06:39:39.161Z,1007.29
2018-06-15T06:40:39.166Z,1007.29
2018-06-15T06:41:39.169Z,1007.29
2018-06-15T06:42:39.175Z,1007.27
2018-06-15T06:43:39.185Z,1007.26
2018-06-15T06:44:39.183Z,1007.29
2018-06-15T06:45:39.187Z,1007.32
2018-06-15T06:46:39.194Z,1007.36
2018-06-15T06:47:39.196Z,1007.35
2018-06-15T06:48:39.201Z,1007.35
2018-06-15T06:49:39.205Z,1007.38
2018-06-15T06:50:39.267Z,1007.36
2018-06-15T06:51:39.219Z,1007.34
2018-06-15T06:52:39.221Z,1007.32
2018-06-15T06:53:39.224Z,1007.35
2018-06-15T06:54:39.232Z,1007.32
2018-06-15T06:55:39.236Z,1007.31
2018-06-15T06:56:39.240Z,1007.33
2018-06-15T06:57:39.245Z,1007.32
2018-06-15T06:58:39.251Z,1007.31
2018-06-15T06:59:39.255Z,1007.29
2018-06-15T07:00:39.261Z,1007.29
2018-06-15T07:01:39.265Z,1007.27
2018-06-15T07:02:39.272Z,1007.32
2018-06-15T07:03:39.277Z,1007.30
2018-06-15T07:04:39.282Z,1007.28
2018-06-15T07:05:39.288Z,1007.28
2018-06-15T07:06:39.293Z,1007.30
2018-06-15T07:07:39.298Z,1007.30
2018-06-15T07:08:39.305Z,1007.27
2018-06-15T07:09:39.309Z,1007.30
2018-06-15T07:10:39.315Z,1007.31
2018-06-15T07:11:39.321Z,1007.32
2018-06-15T07:12:39.328Z,1007.33
2018-06-15T07:13:39.332Z,1007.33
2018-06-15T07:14:39.337Z,1007.30
2018-06-15T07:15:39.344Z,1007.38
2018-06-15T07:16:39.349Z,1007.35
2018-06-15T07:17:39.354Z,1007.33
2018-06-15T07:18:39.361Z,1007.39
2018-06-15T07:19:39.367Z,1007.39
2018-06-15T07:20:39.372Z,1007.36
2018-06-15T07:21:39.378Z,1007.39
2018-06-15T07:22:39.384Z,1007.36
2018-06-15T07:23:39.442Z,1007.32
2018-06-15T07:24:39.395Z,1007.33
2018-06-15T07:25:39.400Z,1007.38
2018-06-15T07:26:39.407Z,1007.56
2018-06-15T07:27:39.418Z,1007.76
2018-06-15T07:28:39.422Z,1007.94
2018-06-15T07:29:39.426Z,1007.37
2018-06-15T07:30:39.433Z,1007.54
2018-06-15T07:31:39.442Z,1007.91
2018-06-15T07:32:39.449Z,1007.40
2018-06-15T07:33:39.456Z,1007.90
2018-06-15T07:34:39.464Z,1007.43
2018-06-15T07:35:39.472Z,1007.44
2018-06-15T07:36:39.480Z,1007.38
2018-06-15T07:37:39.488Z,1007.77
2018-06-15T07:38:39.501Z,1007.93
2018-06-15T07:39:39.506Z,1007.69
2018-06-15T07:40:39.515Z,1007.47
2018-06-15T07:41:39.523Z,1007.40
2018-06-15T07:42:39.532Z,1007.40
2018-06-15T07:43:39.542Z,1007.36
2018-06-15T07:44:39.554Z,1007.38
2018-06-15T07:45:39.560Z,1007.37
2018-06-15T07:46:39.571Z,1008.16
2018-06-15T07:47:39.577Z,1008.26
2018-06-15T07:48:39.588Z,1008.22
2018-06-15T07:49:39.596Z,1008.05
2018-06-15T07:50:39.605Z,1008.33
2018-06-15T07:51:39.615Z,1007.99
2018-06-15T07:52:39.627Z,1008.13
2018-06-15T07:53:39.635Z,1008.18
2018-06-15T07:54:39.645Z,1008.09
2018-06-15T07:55:39.656Z,1007.68
2018-06-15T07:56:39.667Z,1007.74
2018-06-15T07:57:39.676Z,1008.05
2018-06-15T07:58:39.688Z,1007.87
2018-06-15T07:59:39.703Z,1007.88
2018-06-15T08:00:39.711Z,1007.57
2018-06-15T08:01:39.720Z,1007.57
2018-06-15T08:02:39.735Z,1007.51
2018-06-15T08:03:39.746Z,1007.53
2018-06-15T08:04:39.756Z,1007.55
2018-06-15T08:05:39.767Z,1007.58
2018-06-15T08:06:39.778Z,1007.50
2018-06-15T08:07:39.793Z,1007.51
2018-06-15T08:08:39.802Z,1007.45
2018-06-15T08:09:39.814Z,1007.42
2018-06-15T08:10:39.823Z,1007.41
2018-06-15T08:11:39.836Z,1007.42
2018-06-15T08:12:39.846Z,1007.40
2018-06-15T08:13:39.857Z,1007.60
2018-06-15T08:14:39.867Z,1007.45
2018-06-15T08:15:39.877Z,1007.43
2018-06-15T08:16:39.889Z,1007.47
2018-06-15T08:17:39.897Z,1007.45
2018-06-15T08:18:39.907Z,1007.42
2018-06-15T08:19:39.918Z,1007.39
2018-06-15T08:20:39.929Z,1007.39
2018-06-15T08:21:39.939Z,1007.36
2018-06-15T08:22:39.948Z,1007.37
2018-06-15T08:23:39.959Z,1007.38
2018-06-15T08:24:39.968Z,1007.96
2018-06-15T08:25:39.981Z,1007.95
2018-06-15T08:26:39.988Z,1007.89
2018-06-15T08:27:40.048Z,1007.93
2018-06-15T08:28:40.008Z,1007.91
2018-06-15T08:29:40.018Z,1007.88
2018-06-15T08:30:40.031Z,1007.85
2018-06-15T08:31:40.038Z,1007.86
2018-06-15T08:32:40.054Z,1007.86
2018-06-15T08:33:40.059Z,1007.83
2018-06-15T08:34:40.072Z,1007.80
2018-06-15T08:35:40.083Z,1007.94
2018-06-15T08:36:40.095Z,1007.84
2018-06-15T08:37:40.113Z,1007.86
2018-06-15T08:38:40.119Z,1007.92
2018-06-15T08:39:40.132Z,1007.91
2018-06-15T08:40:40.146Z,1007.95
2018-06-15T08:41:40.158Z,1007.89
2018-06-15T08:42:40.173Z,1007.83
2018-06-15T08:43:40.186Z,1007.75
2018-06-15T08:44:40.203Z,1007.93
2018-06-15T08:45:40.214Z,1007.67
2018-06-15T08:46:40.229Z,1007.99
2018-06-15T08:47:40.242Z,1007.93
2018-06-15T08:48:40.256Z,1007.94
2018-06-15T08:49:40.272Z,1007.93
2018-06-15T08:50:40.284Z,1007.90
2018-06-15T08:51:40.299Z,1007.94
2018-06-15T08:52:40.322Z,1007.91
2018-06-15T08:53:40.330Z,1007.85
2018-06-15T08:54:40.344Z,1007.84
2018-06-15T08:55:40.358Z,1007.63
2018-06-15T08:56:40.373Z,1007.71
2018-06-15T08:57:40.388Z,1007.70
2018-06-15T08:58:40.402Z,1007.73
2018-06-15T08:59:40.417Z,1007.86
2018-06-15T09:00:40.432Z,1007.82
2018-06-15T09:01:40.449Z,1007.86
2018-06-15T09:02:40.462Z,1007.99
2018-06-15T09:03:40.475Z,1007.88
2018-06-15T09:04:40.496Z,1007.96
2018-06-15T09:05:40.506Z,1007.82
2018-06-15T09:06:40.520Z,1007.61
2018-06-15T09:07:40.536Z,1007.54
2018-06-15T09:08:40.551Z,1007.53
2018-06-15T09:09:40.565Z,1007.49
2018-06-15T09:10:40.581Z,1007.53
2018-06-15T09:11:40.595Z,1007.53
2018-06-15T09:12:40.609Z,1007.70
2018-06-15T09:13:40.624Z,1007.66
2018-06-15T09:14:40.641Z,1007.51
2018-06-15T09:15:40.659Z,1007.45
2018-06-15T09:16:40.666Z,1007.46
2018-06-15T09:17:40.680Z,1007.45
2018-06-15T09:18:40.695Z,1007.54
2018-06-15T09:19:40.710Z,1007.45
2018-06-15T09:20:40.722Z,1007.51
2018-06-15T09:21:40.735Z,1007.47
2018-06-15T09:22:40.749Z,1007.49
2018-06-15T09:23:40.763Z,1007.50
2018-06-15T09:24:40.776Z,1007.54
2018-06-15T09:25:40.788Z,1007.58
2018-06-15T09:26:40.801Z,1007.56
2018-06-15T09:27:40.815Z,1007.57
2018-06-15T09:28:40.827Z,1007.52
2018-06-15T09:29:40.839Z,1007.52
2018-06-15T09:30:40.852Z,1007.51
2018-06-15T09:31:40.865Z,1007.52
2018-06-15T09:32:40.928Z,1007.52
2018-06-15T09:33:40.888Z,1007.53
2018-06-15T09:34:40.906Z,1007.66
2018-06-15T09:35:40.913Z,1007.76
2018-06-15T09:36:40.925Z,1007.58
2018-06-15T09:37:40.936Z,1007.53
2018-06-15T09:38:40.950Z,1007.46
2018-06-15T09:39:40.961Z,1007.92
2018-06-15T09:40:40.971Z,1007.63
2018-06-15T09:41:40.982Z,1007.68
2018-06-15T09:42:40.994Z,1007.63
2018-06-15T09:43:41.007Z,1007.60
2018-06-15T09:44:41.017Z,1007.74
2018-06-15T09:45:41.028Z,1008.04
2018-06-15T09:46:41.041Z,1008.06
2018-06-15T09:47:41.052Z,1008.16
2018-06-15T09:48:41.068Z,1008.05
2018-06-15T09:49:41.075Z,1007.74
2018-06-15T09:50:41.087Z,1008.01
2018-06-15T09:51:41.103Z,1008.13
2018-06-15T09:52:41.113Z,1008.02
2018-06-15T09:53:41.124Z,1008.12
2018-06-15T09:54:41.136Z,1007.97
2018-06-15T09:55:41.150Z,1007.80
2018-06-15T09:56:41.163Z,1007.67
2018-06-15T09:57:41.176Z,1007.63
2018-06-15T09:58:41.189Z,1007.67
2018-06-15T09:59:41.202Z,1007.63
2018-06-15T10:00:41.216Z,1007.58
2018-06-15T10:01:41.227Z,1007.62
2018-06-15T10:02:41.240Z,1008.05
2018-06-15T10:03:41.254Z,1007.79
2018-06-15T10:04:41.268Z,1007.79
2018-06-15T10:05:41.282Z,1007.70
2018-06-15T10:06:41.293Z,1007.59
2018-06-15T10:07:41.310Z,1007.54
2018-06-15T10:08:41.320Z,1007.56
2018-06-15T10:09:41.332Z,1007.61
2018-06-15T10:10:41.346Z,1007.61
2018-06-15T10:11:41.359Z,1007.49
2018-06-15T10:12:41.371Z,1007.47
2018-06-15T10:13:41.386Z,1007.46
2018-06-15T10:14:41.396Z,1007.49
2018-06-15T10:15:41.410Z,1007.49
2018-06-15T10:16:41.452Z,1007.53
2018-06-15T10:17:41.434Z,1007.50
2018-06-15T10:18:41.448Z,1007.59
2018-06-15T10:19:41.462Z,1007.65
2018-06-15T10:20:41.472Z,1007.92
2018-06-15T10:21:41.483Z,1007.79
2018-06-15T10:22:41.494Z,1007.59
2018-06-15T10:23:41.508Z,1007.83
2018-06-15T10:24:41.522Z,1007.91
2018-06-15T10:25:41.532Z,1008.00
2018-06-15T10:26:41.548Z,1007.95
2018-06-15T10:27:41.556Z,1007.94
2018-06-15T10:28:41.569Z,1007.98
2018-06-15T10:29:41.580Z,1007.96
2018-06-15T10:30:41.593Z,1008.03
2018-06-15T10:31:41.606Z,1008.02
2018-06-15T10:32:41.621Z,1008.05
2018-06-15T10:33:41.631Z,1008.03
2018-06-15T10:34:41.646Z,1008.04
2018-06-15T10:35:41.658Z,1008.09
2018-06-15T10:36:41.672Z,1008.06
2018-06-15T10:37:41.684Z,1008.03
2018-06-15T10:38:41.698Z,1007.98
2018-06-15T10:39:41.713Z,1008.00
2018-06-15T10:40:41.726Z,1008.00
2018-06-15T10:41:41.739Z,1007.99
2018-06-15T10:42:41.753Z,1007.97
2018-06-15T10:43:41.767Z,1007.95
2018-06-15T10:44:41.782Z,1007.92
2018-06-15T10:45:41.805Z,1007.94
2018-06-15T10:46:41.808Z,1007.93
2018-06-15T10:47:41.823Z,1007.88
2018-06-15T10:48:41.838Z,1007.86
2018-06-15T10:49:41.851Z,1007.85
2018-06-15T10:50:41.866Z,1007.83
2018-06-15T10:51:41.881Z,1007.84
2018-06-15T10:52:41.896Z,1007.83
2018-06-15T10:53:41.908Z,1007.80
2018-06-15T10:54:41.923Z,1007.84
2018-06-15T10:55:41.937Z,1007.78
2018-06-15T10:56:41.952Z,1007.76
2018-06-15T10:57:41.966Z,1007.78
2018-06-15T10:58:41.981Z,1007.76
2018-06-15T10:59:41.995Z,1007.73
2018-06-15T11:00:42.009Z,1007.64
2018-06-15T11:01:42.023Z,1007.70
2018-06-15T11:02:42.038Z,1007.67
2018-06-15T11:03:42.053Z,1007.72
2018-06-15T11:04:42.066Z,1007.67
2018-06-15T11:05:42.080Z,1007.67
2018-06-15T11:06:42.094Z,1007.66
2018-06-15T11:07:42.113Z,1007.63
2018-06-15T11:08:42.122Z,1007.59
2018-06-15T11:09:42.136Z,1007.59
2018-06-15T11:10:42.151Z,1007.56
2018-06-15T11:11:42.164Z,1007.50
2018-06-15T11:12:42.179Z,1007.53
2018-06-15T11:13:42.191Z,1007.47
2018-06-15T11:14:42.205Z,1007.36
2018-06-15T11:15:42.219Z,1007.17
2018-06-15T11:16:42.233Z,1007.16
2018-06-15T11:17:42.249Z,1007.19
2018-06-15T11:18:42.260Z,1007.20
2018-06-15T11:19:42.274Z,1007.19
2018-06-15T11:20:42.287Z,1007.29
2018-06-15T11:21:42.299Z,1007.28
2018-06-15T11:22:42.312Z,1007.21
2018-06-15T11:23:42.326Z,1007.22
2018-06-15T11:24:42.344Z,1007.16
2018-06-15T11:25:42.349Z,1007.15
2018-06-15T11:26:42.364Z,1007.15
2018-06-15T11:27:42.377Z,1007.13
2018-06-15T11:28:42.389Z,1007.14
2018-06-15T11:29:42.402Z,1007.11
2018-06-15T11:30:42.415Z,1007.12
2018-06-15T11:31:42.426Z,1007.12
2018-06-15T11:32:42.445Z,1007.15
2018-06-15T11:33:42.450Z,1007.14
2018-06-15T11:34:42.462Z,1007.11
2018-06-15T11:35:42.475Z,1007.14
2018-06-15T11:36:42.487Z,1007.13
2018-06-15T11:37:42.499Z,1007.09
2018-06-15T11:38:42.510Z,1007.07
2018-06-15T11:39:42.522Z,1007.06
2018-06-15T11:40:42.534Z,1007.05
2018-06-15T11:41:42.545Z,1007.00
2018-06-15T11:42:42.557Z,1007.05
2018-06-15T11:43:42.569Z,1007.06
2018-06-15T11:44:42.579Z,1007.11
2018-06-15T11:45:42.590Z,1007.03
2018-06-15T11:46:42.602Z,1007.05
2018-06-15T11:47:42.613Z,1007.02
2018-06-15T11:48:42.627Z,1007.03
2018-06-15T11:49:42.636Z,1007.01
2018-06-15T11:50:42.647Z,1007.04
2018-06-15T11:51:42.657Z,1007.03
2018-06-15T11:52:42.668Z,1007.00
2018-06-15T11:53:42.678Z,1007.00
2018-06-15T11:54:42.690Z,1007.01
2018-06-15T11:55:42.702Z,1006.97
2018-06-15T11:56:42.712Z,1006.98
2018-06-15T11:57:42.723Z,1006.88
2018-06-15T11:58:42.735Z,1006.87
2018-06-15T11:59:42.744Z,1006.86
2018-06-15T12:00:42.755Z,1006.86
2018-06-15T12:01:42.775Z,1006.81
2018-06-15T12:02:42.776Z,1006.87
2018-06-15T12:03:42.790Z,1006.88
2018-06-15T12:04:42.797Z,1006.89
2018-06-15T12:05:42.807Z,1006.87